Time;durP1;ratioP1;P1;durP2;ratioP2;P2;SDS_P1;SDS_P2;PMS_P1;PMS_P2;Temp;Humidity;BMP_temperature;BMP_pressure;BME280_temperature;BME280_humidity;BME280_pressure;Samples;Min_cycle;Max_cycle;Signal;HPM_P1;HPM_P2
2022/12/09 00:02:15;;;;;;;154.63;42.13;;;1.80;99.90;;;;;;5006912;28;39860;-78
2022/12/09 00:04:41;;;;;;;91.70;38.83;;;1.80;99.90;;;;;;5023462;28;37718;-78
2022/12/09 00:07:07;;;;;;;65.93;34.80;;;1.70;99.90;;;;;;5012383;28;37870;-78
2022/12/09 00:09:34;;;;;;;84.63;36.70;;;1.70;99.90;;;;;;5010219;28;37392;-79
2022/12/09 00:12:00;;;;;;;78.37;35.30;;;1.70;99.90;;;;;;5007004;28;37238;-78
2022/12/09 00:14:26;;;;;;;95.10;38.30;;;1.70;99.90;;;;;;5007624;28;38115;-78
2022/12/09 00:16:55;;;;;;;72.57;34.97;;;1.70;99.90;;;;;;5015695;28;38115;-78
2022/12/09 00:19:21;;;;;;;98.17;38.60;;;1.80;99.90;;;;;;5024054;28;37640;-78
2022/12/09 00:21:47;;;;;;;108.23;39.40;;;1.80;99.90;;;;;;5016233;28;38928;-78
2022/12/09 00:24:14;;;;;;;79.90;36.60;;;1.80;99.90;;;;;;5014880;28;38565;-78
2022/12/09 00:26:42;;;;;;;101.20;41.53;;;1.80;99.90;;;;;;5017606;28;37326;-78
2022/12/09 00:29:10;;;;;;;95.27;41.00;;;1.80;99.90;;;;;;5013479;28;36563;-78
2022/12/09 00:31:37;;;;;;;114.33;41.97;;;1.90;99.90;;;;;;5009647;28;39270;-78
2022/12/09 00:34:07;;;;;;;83.73;35.43;;;1.80;99.90;;;;;;5025418;28;38371;-78
2022/12/09 00:36:34;;;;;;;76.87;34.70;;;1.80;99.90;;;;;;5014923;28;38159;-78
2022/12/09 00:39:00;;;;;;;70.17;34.00;;;1.70;99.90;;;;;;5015131;28;37515;-78
2022/12/09 00:41:27;;;;;;;67.50;33.13;;;1.70;99.90;;;;;;5007967;28;38296;-78
2022/12/09 00:43:54;;;;;;;87.60;38.03;;;1.80;99.90;;;;;;5007373;28;37783;-78
2022/12/09 00:46:20;;;;;;;114.23;40.73;;;1.80;99.90;;;;;;5000722;28;38399;-78
2022/12/09 00:48:49;;;;;;;75.80;34.27;;;1.90;99.90;;;;;;5019576;28;36144;-78
2022/12/09 00:51:18;;;;;;;79.17;37.00;;;1.90;99.90;;;;;;5006698;28;38355;-78
2022/12/09 00:53:46;;;;;;;102.07;37.53;;;1.90;99.90;;;;;;5022905;28;37577;-78
2022/12/09 00:56:15;;;;;;;72.80;31.17;;;1.80;99.90;;;;;;5004456;28;38530;-78
2022/12/09 00:58:41;;;;;;;109.60;35.53;;;1.80;99.90;;;;;;5004649;28;37500;-78
2022/12/09 01:01:07;;;;;;;96.07;34.63;;;1.80;99.90;;;;;;5003614;28;39360;-78
2022/12/09 01:03:33;;;;;;;69.93;31.93;;;1.70;99.90;;;;;;5006362;28;37659;-78
2022/12/09 01:06:00;;;;;;;65.17;30.10;;;1.70;99.90;;;;;;5001364;28;37214;-78
2022/12/09 01:08:26;;;;;;;70.63;30.97;;;1.70;99.90;;;;;;5000465;28;36273;-78
2022/12/09 01:10:52;;;;;;;115.67;32.90;;;1.70;99.90;;;;;;5007575;28;39165;-78
2022/12/09 01:13:18;;;;;;;123.93;33.13;;;1.70;99.90;;;;;;5010189;28;39045;-78
2022/12/09 01:15:44;;;;;;;110.50;31.53;;;1.70;99.90;;;;;;5004978;28;36888;-78
2022/12/09 01:18:11;;;;;;;159.40;35.40;;;1.70;99.90;;;;;;5005376;28;37005;-78
2022/12/09 01:20:37;;;;;;;78.10;28.33;;;1.70;99.90;;;;;;5004213;28;37827;-78
2022/12/09 01:23:03;;;;;;;116.07;31.13;;;1.80;99.90;;;;;;5004414;28;38343;-77
2022/12/09 01:25:29;;;;;;;67.73;26.77;;;1.80;99.90;;;;;;5022990;28;36776;-78
2022/12/09 01:27:55;;;;;;;56.73;25.00;;;1.80;99.90;;;;;;5003532;28;36260;-78
2022/12/09 01:30:22;;;;;;;76.57;25.23;;;1.70;99.90;;;;;;5022191;28;37485;-78
2022/12/09 01:32:48;;;;;;;62.47;22.80;;;1.70;99.90;;;;;;5004971;28;37744;-78
2022/12/09 01:35:14;;;;;;;54.33;22.13;;;1.70;99.90;;;;;;5007039;28;38188;-78
2022/12/09 01:37:40;;;;;;;48.13;20.47;;;1.70;99.90;;;;;;5011507;28;36312;-78
2022/12/09 01:40:11;;;;;;;102.37;26.23;;;1.70;99.90;;;;;;5011492;28;39434;-77
2022/12/09 01:42:37;;;;;;;59.83;20.73;;;1.70;99.90;;;;;;5009148;28;38288;-78
2022/12/09 01:45:22;;;;;;;59.90;24.07;;;1.70;99.90;;;;;;5000081;28;36611;-77
2022/12/09 01:47:53;;;;;;;51.20;20.33;;;1.70;99.90;;;;;;5008765;28;36472;-78
2022/12/09 01:50:26;;;;;;;69.60;22.30;;;1.60;99.90;;;;;;5016456;28;37537;-78
2022/12/09 01:52:53;;;;;;;100.17;23.90;;;1.60;99.90;;;;;;5007001;28;38263;-78
2022/12/09 01:55:19;;;;;;;128.57;27.27;;;1.70;99.90;;;;;;5001852;28;38650;-79
2022/12/09 01:57:46;;;;;;;60.07;23.10;;;1.70;99.90;;;;;;5021888;28;36567;-78
2022/12/09 02:00:13;;;;;;;49.97;21.80;;;1.60;99.90;;;;;;5021002;28;37729;-78
2022/12/09 02:02:42;;;;;;;72.67;23.07;;;1.60;99.90;;;;;;5419881;22;37716;-78
2022/12/09 02:05:08;;;;;;;103.83;25.17;;;1.60;99.90;;;;;;4999483;28;37916;-77
2022/12/09 02:07:34;;;;;;;48.10;20.37;;;1.70;99.90;;;;;;4982881;28;38735;-77
2022/12/09 02:10:04;;;;;;;77.47;20.63;;;1.70;99.90;;;;;;4987642;28;38539;-78
2022/12/09 02:12:49;;;;;;;55.37;21.13;;;1.60;99.90;;;;;;4985920;28;49186;-78
2022/12/09 02:15:32;;;;;;;67.60;21.27;;;1.60;99.90;;;;;;4991123;28;36964;-78
2022/12/09 02:18:06;;;;;;;62.22;21.55;;;1.50;99.90;;;;;;4998530;28;35842;-78
2022/12/09 02:20:42;;;;;;;63.83;20.87;;;1.50;99.90;;;;;;4985396;28;47898;-77
2022/12/09 02:23:27;;;;;;;79.90;23.43;;;1.50;99.90;;;;;;4984318;28;38207;-78
2022/12/09 02:26:03;;;;;;;53.80;21.30;;;1.50;99.90;;;;;;4983822;28;37392;-78
2022/12/09 02:28:54;;;;;;;55.07;20.93;;;1.50;99.90;;;;;;4996524;28;47009;-78
2022/12/09 02:32:09;;;;;;;54.83;21.33;;;1.50;99.90;;;;;;4987937;28;38950;-78
2022/12/09 02:34:43;;;;;;;88.70;24.70;;;1.40;99.90;;;;;;4968641;28;47342;-77
2022/12/09 02:38:02;;;;;;;79.77;23.80;;;1.50;99.90;;;;;;4991678;28;37968;-78
2022/12/09 02:41:00;;;;;;;63.73;22.97;;;1.50;99.90;;;;;;4909981;28;46904;-77
2022/12/09 02:43:31;;;;;;;58.63;23.30;;;1.50;99.90;;;;;;4978328;28;39645;-77
2022/12/09 02:45:59;;;;;;;67.80;24.70;;;1.40;99.90;;;;;;4984966;28;39191;-77
2022/12/09 02:48:32;;;;;;;69.07;24.93;;;1.30;99.90;;;;;;4984139;28;36562;-77
2022/12/09 02:51:04;;;;;;;56.37;23.83;;;1.40;99.90;;;;;;4987339;28;36641;-77
2022/12/09 02:53:31;;;;;;;128.33;31.30;;;1.40;99.90;;;;;;4982161;28;48044;-77
2022/12/09 02:55:58;;;;;;;76.10;26.93;;;1.40;99.90;;;;;;5004120;28;39975;-77
2022/12/09 02:58:24;;;;;;;58.83;25.23;;;1.40;99.90;;;;;;4992052;28;38674;-77
2022/12/09 03:00:54;;;;;;;67.57;26.90;;;1.30;99.90;;;;;;4985704;28;36211;-77
2022/12/09 03:03:21;;;;;;;58.83;26.27;;;1.30;99.90;;;;;;5008352;28;37525;-77
2022/12/09 03:05:57;;;;;;;75.20;28.03;;;1.30;99.90;;;;;;4992070;28;38269;-77
2022/12/09 03:08:46;;;;;;;64.90;27.03;;;1.30;99.90;;;;;;5006609;28;38429;-77
2022/12/09 03:11:16;;;;;;;61.20;27.47;;;1.30;99.90;;;;;;4986064;28;38292;-77
2022/12/09 03:13:45;;;;;;;74.17;29.00;;;1.30;99.90;;;;;;4994917;28;38333;-77
2022/12/09 03:16:35;;;;;;;64.67;29.43;;;1.30;99.90;;;;;;5004138;28;37691;-77
2022/12/09 03:19:19;;;;;;;63.57;27.53;;;1.20;99.90;;;;;;4992384;28;38182;-76
2022/12/09 03:21:51;;;;;;;111.80;33.33;;;1.30;99.90;;;;;;4991642;28;49145;-77
2022/12/09 03:24:23;;;;;;;89.67;32.40;;;1.30;99.90;;;;;;5013102;28;38795;-78
2022/12/09 03:26:50;;;;;;;74.87;30.87;;;1.30;99.90;;;;;;5003874;28;38101;-77
2022/12/09 03:29:20;;;;;;;90.17;33.03;;;1.30;99.90;;;;;;4986929;28;38674;-76
2022/12/09 03:31:49;;;;;;;69.83;30.37;;;1.40;99.90;;;;;;4990684;28;36117;-77
2022/12/09 03:34:23;;;;;;;69.63;31.20;;;1.40;99.90;;;;;;4990788;28;39126;-77
2022/12/09 03:36:51;;;;;;;81.10;31.43;;;1.50;99.90;;;;;;4990343;28;38402;-77
2022/12/09 03:39:22;;;;;;;92.30;35.57;;;1.60;99.90;;;;;;4984672;28;37895;-77
2022/12/09 03:41:57;;;;;;;127.70;37.80;;;1.60;99.90;;;;;;5009928;28;36060;-77
2022/12/09 03:44:32;;;;;;;73.37;31.83;;;1.60;99.90;;;;;;4991419;28;38924;-77
2022/12/09 03:46:58;;;;;;;62.47;29.47;;;1.50;99.90;;;;;;4985020;28;38108;-77
2022/12/09 03:49:25;;;;;;;59.17;28.83;;;1.40;99.90;;;;;;4989915;28;38091;-77
2022/12/09 03:52:06;;;;;;;75.80;32.27;;;1.50;99.90;;;;;;5003398;28;36763;-77
2022/12/09 03:54:44;;;;;;;91.13;33.83;;;1.40;99.90;;;;;;4997162;28;46913;-78
2022/12/09 03:57:15;;;;;;;69.87;30.50;;;1.40;99.90;;;;;;4981018;28;38538;-77
2022/12/09 03:59:44;;;;;;;69.93;31.77;;;1.40;99.90;;;;;;5000298;28;38153;-77
2022/12/09 04:02:10;;;;;;;76.23;32.03;;;1.40;99.90;;;;;;5002847;28;36548;-77
2022/12/09 04:04:41;;;;;;;77.53;32.83;;;1.40;99.90;;;;;;4984636;28;37534;-77
2022/12/09 04:07:09;;;;;;;82.77;33.77;;;1.40;99.90;;;;;;4998607;28;35654;-77
2022/12/09 04:09:35;;;;;;;97.23;36.13;;;1.40;99.90;;;;;;4984932;28;38550;-77
2022/12/09 04:12:02;;;;;;;68.90;31.87;;;1.50;99.90;;;;;;4981893;28;36067;-77
2022/12/09 04:14:28;;;;;;;94.57;36.27;;;1.40;99.90;;;;;;5003414;28;47279;-77
2022/12/09 04:16:54;;;;;;;64.20;32.27;;;1.40;99.90;;;;;;4990994;28;38791;-77
2022/12/09 04:19:20;;;;;;;95.93;34.03;;;1.40;99.90;;;;;;4985304;28;37665;-77
2022/12/09 04:21:46;;;;;;;80.97;32.23;;;1.40;99.90;;;;;;5006160;28;37310;-76
2022/12/09 04:24:13;;;;;;;67.23;31.37;;;1.50;99.90;;;;;;4988712;28;39684;-77
2022/12/09 04:26:39;;;;;;;59.10;30.60;;;1.50;99.90;;;;;;4994831;28;38361;-76
2022/12/09 04:29:05;;;;;;;68.07;31.63;;;1.40;99.90;;;;;;4990430;28;37822;-77
2022/12/09 04:31:31;;;;;;;74.03;31.33;;;1.40;99.90;;;;;;4989306;28;48074;-77
2022/12/09 04:33:59;;;;;;;72.47;32.17;;;1.40;99.90;;;;;;4986915;28;37838;-77
2022/12/09 04:36:25;;;;;;;84.40;32.50;;;1.30;99.90;;;;;;4991463;28;37952;-77
2022/12/09 04:38:51;;;;;;;64.23;29.63;;;1.30;99.90;;;;;;4986677;28;36535;-77
2022/12/09 04:41:17;;;;;;;65.67;30.97;;;1.20;99.90;;;;;;4986549;28;37446;-77
2022/12/09 04:43:43;;;;;;;94.93;33.97;;;1.20;99.90;;;;;;4994600;28;38385;-77
2022/12/09 04:46:12;;;;;;;85.60;33.70;;;1.20;99.90;;;;;;4990977;28;38367;-77
2022/12/09 04:48:38;;;;;;;79.40;32.43;;;1.20;99.90;;;;;;4989842;28;38443;-77
2022/12/09 04:51:08;;;;;;;66.37;31.37;;;1.20;99.90;;;;;;4983763;28;36465;-78
2022/12/09 04:53:35;;;;;;;78.17;32.13;;;1.30;99.90;;;;;;4986775;28;39116;-76
2022/12/09 04:56:04;;;;;;;79.90;32.43;;;1.30;99.90;;;;;;4992463;28;38687;-77
2022/12/09 04:58:30;;;;;;;72.40;29.87;;;1.20;99.90;;;;;;4987725;28;48785;-76
2022/12/09 05:00:57;;;;;;;54.63;27.23;;;1.20;99.90;;;;;;4983090;28;37544;-77
2022/12/09 05:03:23;;;;;;;64.63;28.57;;;1.10;99.90;;;;;;5004587;28;38681;-77
2022/12/09 05:05:49;;;;;;;56.03;26.60;;;1.10;99.90;;;;;;4989445;28;37034;-77
2022/12/09 05:08:15;;;;;;;92.07;33.13;;;1.10;99.90;;;;;;4988363;28;37141;-77
2022/12/09 05:10:49;;;;;;;62.53;28.97;;;1.10;99.90;;;;;;4991207;28;36847;-77
2022/12/09 05:13:16;;;;;;;74.20;30.97;;;1.20;99.90;;;;;;4987497;28;38911;-77
2022/12/09 05:15:42;;;;;;;70.53;30.33;;;1.20;99.90;;;;;;4987669;28;38412;-77
2022/12/09 05:18:08;;;;;;;63.97;28.37;;;1.20;99.90;;;;;;4985959;28;36862;-77
2022/12/09 05:20:37;;;;;;;58.10;28.70;;;1.30;99.90;;;;;;4989111;28;37091;-77
2022/12/09 05:23:04;;;;;;;62.20;29.13;;;1.30;99.90;;;;;;4990659;28;38207;-76
2022/12/09 05:25:30;;;;;;;64.30;29.27;;;1.20;99.90;;;;;;4988777;28;39049;-77
2022/12/09 05:27:56;;;;;;;58.30;27.53;;;1.20;99.90;;;;;;4993435;28;37659;-75
2022/12/09 05:30:22;;;;;;;60.13;27.80;;;1.20;99.90;;;;;;4987150;28;37869;-75
2022/12/09 05:32:48;;;;;;;81.90;30.37;;;1.30;99.90;;;;;;4994818;28;39032;-77
2022/12/09 05:35:14;;;;;;;79.23;30.30;;;1.20;99.90;;;;;;4985421;28;39186;-77
2022/12/09 05:37:41;;;;;;;76.60;31.43;;;1.30;99.90;;;;;;4990159;28;38309;-77
2022/12/09 05:40:07;;;;;;;72.97;29.63;;;1.20;99.90;;;;;;4990040;28;37382;-76
2022/12/09 05:42:33;;;;;;;86.20;32.03;;;1.20;99.90;;;;;;4985379;28;38798;-77
2022/12/09 05:44:59;;;;;;;56.53;27.07;;;1.10;99.90;;;;;;4992434;28;39365;-77
2022/12/09 05:47:25;;;;;;;85.23;30.90;;;1.10;99.90;;;;;;5000593;28;37895;-77
2022/12/09 05:49:51;;;;;;;58.77;26.37;;;1.10;99.90;;;;;;4981837;28;37320;-77
2022/12/09 05:52:17;;;;;;;56.93;27.13;;;1.10;99.90;;;;;;4983380;28;39173;-77
2022/12/09 05:54:44;;;;;;;65.40;28.83;;;1.10;99.90;;;;;;4982026;28;38119;-76
2022/12/09 05:57:10;;;;;;;64.83;28.97;;;1.10;99.90;;;;;;4971607;28;36504;-77
2022/12/09 05:59:36;;;;;;;77.90;31.47;;;1.00;99.90;;;;;;4978966;28;36370;-77
2022/12/09 06:02:02;;;;;;;57.13;28.10;;;0.90;99.90;;;;;;4982145;28;38664;-76
2022/12/09 06:04:30;;;;;;;58.23;26.40;;;0.80;99.90;;;;;;4981183;28;36564;-77
2022/12/09 06:06:56;;;;;;;72.17;30.13;;;0.80;99.90;;;;;;4981582;28;37776;-77
2022/12/09 06:09:22;;;;;;;71.93;30.57;;;0.80;99.90;;;;;;4997074;28;37050;-77
2022/12/09 06:11:48;;;;;;;61.93;27.50;;;0.80;99.90;;;;;;4999594;28;37530;-77
2022/12/09 06:14:14;;;;;;;68.57;28.47;;;0.70;99.90;;;;;;4983639;28;38120;-77
2022/12/09 06:16:40;;;;;;;67.77;28.77;;;0.70;99.90;;;;;;4983827;28;37738;-77
2022/12/09 06:19:10;;;;;;;71.20;30.17;;;0.60;99.90;;;;;;4986806;28;37318;-80
2022/12/09 06:21:39;;;;;;;64.83;27.70;;;0.50;99.90;;;;;;4978302;28;48853;-77
2022/12/09 06:24:05;;;;;;;75.70;29.00;;;0.40;99.90;;;;;;4967727;28;38447;-78
2022/12/09 06:26:31;;;;;;;70.87;29.63;;;0.30;99.90;;;;;;5000135;28;36905;-78
2022/12/09 06:28:58;;;;;;;63.30;27.40;;;0.30;99.90;;;;;;4989779;28;37068;-77
2022/12/09 06:31:26;;;;;;;75.70;28.57;;;0.20;99.90;;;;;;4985281;28;38033;-78
2022/12/09 06:33:52;;;;;;;79.27;29.80;;;0.10;99.90;;;;;;4980581;28;37029;-77
2022/12/09 06:36:19;;;;;;;68.70;28.43;;;-0.10;99.90;;;;;;4984225;28;37903;-77
2022/12/09 06:38:45;;;;;;;77.93;30.37;;;-0.10;99.90;;;;;;4982104;28;36023;-77
2022/12/09 06:41:13;;;;;;;72.77;29.87;;;-0.20;99.90;;;;;;4998375;28;37359;-77
2022/12/09 06:43:40;;;;;;;77.63;30.90;;;-0.20;99.90;;;;;;4984709;28;38171;-78
2022/12/09 06:46:15;;;;;;;73.83;30.60;;;-0.20;99.90;;;;;;4998085;28;35714;-78
2022/12/09 06:48:41;;;;;;;65.07;29.30;;;-0.30;99.90;;;;;;4988467;28;40155;-78
2022/12/09 06:51:07;;;;;;;70.80;28.57;;;-0.20;99.90;;;;;;4993895;28;40245;-78
2022/12/09 06:53:33;;;;;;;54.90;26.20;;;-0.30;99.90;;;;;;4995149;28;39447;-77
2022/12/09 06:56:05;;;;;;;62.37;27.10;;;-0.30;99.90;;;;;;5003671;28;37297;-77
2022/12/09 06:58:32;;;;;;;68.60;28.47;;;-0.30;99.90;;;;;;4995150;28;48539;-77
2022/12/09 07:01:15;;;;;;;75.47;28.07;;;-0.30;99.90;;;;;;4993219;28;38695;-77
2022/12/09 07:03:43;;;;;;;59.30;26.37;;;-0.40;99.90;;;;;;5008279;28;47092;-77
2022/12/09 07:06:21;;;;;;;62.97;26.37;;;-0.40;99.90;;;;;;4994853;28;37054;-77
2022/12/09 07:08:47;;;;;;;63.93;26.57;;;-0.40;99.90;;;;;;4988052;28;38454;-77
2022/12/09 07:11:13;;;;;;;62.57;27.63;;;-0.50;99.90;;;;;;4989790;28;38921;-77
2022/12/09 07:13:39;;;;;;;54.23;24.23;;;-0.50;99.90;;;;;;4985930;28;38838;-76
2022/12/09 07:16:05;;;;;;;61.73;26.40;;;-0.40;99.90;;;;;;4987697;28;38224;-75
2022/12/09 07:18:31;;;;;;;61.20;27.07;;;-0.40;99.90;;;;;;4992715;28;38522;-77
2022/12/09 07:21:04;;;;;;;59.17;27.17;;;-0.40;99.90;;;;;;4988438;28;37607;-76
2022/12/09 07:23:30;;;;;;;53.65;24.27;;;-0.40;99.90;;;;;;4983764;28;38495;-77
2022/12/09 07:25:56;;;;;;;62.90;26.83;;;-0.40;99.90;;;;;;4987523;28;38898;-77
2022/12/09 07:28:23;;;;;;;56.67;25.60;;;-0.30;99.90;;;;;;4984667;28;37331;-77
2022/12/09 07:30:49;;;;;;;54.20;25.23;;;-0.40;99.90;;;;;;4992437;28;38536;-76
2022/12/09 07:33:15;;;;;;;57.93;26.70;;;-0.40;99.90;;;;;;4990643;28;38575;-77
2022/12/09 07:35:41;;;;;;;64.43;27.53;;;-0.40;99.90;;;;;;4984363;28;37845;-76
2022/12/09 07:38:07;;;;;;;58.77;26.03;;;-0.40;99.90;;;;;;4989810;28;37907;-77
2022/12/09 07:40:33;;;;;;;60.83;27.17;;;-0.40;99.90;;;;;;5002972;28;39517;-77
2022/12/09 07:42:59;;;;;;;59.03;25.33;;;-0.50;99.90;;;;;;4993850;28;38569;-76
2022/12/09 07:45:25;;;;;;;51.13;22.73;;;-0.50;99.90;;;;;;4990853;28;38982;-73
2022/12/09 07:47:51;;;;;;;58.83;26.27;;;-0.60;99.90;;;;;;4987045;28;37058;-77
2022/12/09 07:50:17;;;;;;;62.47;28.80;;;-0.50;99.90;;;;;;4987709;28;38453;-77
2022/12/09 07:52:43;;;;;;;57.43;24.47;;;-0.60;99.90;;;;;;4996031;28;36989;-76
2022/12/09 07:55:12;;;;;;;62.00;26.23;;;-0.60;99.90;;;;;;4989106;28;37315;-76
2022/12/09 07:57:38;;;;;;;61.03;26.77;;;-0.60;99.90;;;;;;4987774;28;36177;-77
2022/12/09 08:00:05;;;;;;;55.13;23.37;;;-0.50;99.90;;;;;;4992163;28;38898;-77
2022/12/09 08:02:31;;;;;;;62.67;26.97;;;-0.60;99.90;;;;;;4994212;28;38465;-76
2022/12/09 08:04:58;;;;;;;60.33;25.60;;;-0.60;99.90;;;;;;4990383;28;38318;-76
2022/12/09 08:07:24;;;;;;;60.03;27.20;;;-0.60;99.90;;;;;;4988422;28;38411;-77
2022/12/09 08:09:53;;;;;;;60.87;25.63;;;-0.50;99.90;;;;;;4988366;28;38699;-77
2022/12/09 08:12:19;;;;;;;46.43;21.87;;;-0.50;99.90;;;;;;4988725;28;38286;-77
2022/12/09 08:14:45;;;;;;;62.83;27.60;;;-0.50;99.90;;;;;;4989862;28;37277;-78
2022/12/09 08:17:11;;;;;;;71.03;27.53;;;-0.50;99.90;;;;;;4988340;28;37229;-78
2022/12/09 08:19:37;;;;;;;63.13;28.20;;;-0.60;99.90;;;;;;5001516;28;36584;-77
2022/12/09 08:22:03;;;;;;;69.20;28.10;;;-0.60;99.90;;;;;;4982636;28;37145;-76
2022/12/09 08:24:29;;;;;;;67.73;29.07;;;-0.60;99.90;;;;;;5001477;28;36981;-77
2022/12/09 08:26:55;;;;;;;65.27;28.70;;;-0.50;99.90;;;;;;4991547;28;36332;-77
2022/12/09 08:29:23;;;;;;;67.07;28.83;;;-0.50;99.90;;;;;;4991895;28;20058;-78
2022/12/09 08:31:49;;;;;;;72.23;29.73;;;-0.40;99.90;;;;;;4986077;28;38447;-77
2022/12/09 08:34:15;;;;;;;71.90;28.93;;;-0.40;99.90;;;;;;4986886;28;37970;-77
2022/12/09 08:36:42;;;;;;;66.53;27.97;;;-0.40;99.90;;;;;;4987851;28;37345;-76
2022/12/09 08:39:08;;;;;;;75.43;29.97;;;-0.40;99.90;;;;;;5004275;28;37511;-76
2022/12/09 08:41:36;;;;;;;71.73;29.33;;;-0.40;99.90;;;;;;4996002;28;38187;-77
2022/12/09 08:44:15;;;;;;;65.17;28.03;;;-0.30;99.90;;;;;;5004306;28;36509;-76
2022/12/09 08:46:46;;;;;;;71.67;30.70;;;-0.30;99.90;;;;;;4991167;28;38218;-77
2022/12/09 08:49:16;;;;;;;70.40;29.33;;;-0.30;99.90;;;;;;4991518;28;37890;-76
2022/12/09 08:51:43;;;;;;;72.10;31.13;;;-0.30;99.90;;;;;;4992273;28;38155;-78
2022/12/09 08:54:10;;;;;;;85.83;35.13;;;-0.40;99.90;;;;;;4983030;28;36831;-76
2022/12/09 08:56:36;;;;;;;70.43;31.23;;;-0.40;99.90;;;;;;5000212;28;37419;-77
2022/12/09 08:59:02;;;;;;;72.70;31.40;;;-0.30;99.90;;;;;;4995307;28;37605;-77
2022/12/09 09:01:33;;;;;;;71.83;30.93;;;-0.30;99.90;;;;;;4988052;28;39228;-77
2022/12/09 09:04:01;;;;;;;65.23;29.50;;;-0.30;99.90;;;;;;4988406;28;37357;-77
2022/12/09 09:06:27;;;;;;;78.63;31.80;;;-0.30;99.90;;;;;;4989730;28;47729;-77
2022/12/09 09:08:55;;;;;;;82.07;34.97;;;-0.20;99.90;;;;;;4985419;28;37653;-77
2022/12/09 09:11:22;;;;;;;108.97;46.53;;;-0.20;99.90;;;;;;4989918;28;37456;-76
2022/12/09 09:13:50;;;;;;;124.37;47.40;;;-0.20;99.90;;;;;;4992539;28;38886;-77
2022/12/09 09:16:18;;;;;;;106.30;43.30;;;-0.10;99.90;;;;;;4988509;28;37967;-76
2022/12/09 09:18:44;;;;;;;101.00;40.03;;;0.00;99.90;;;;;;4990674;28;37454;-77
2022/12/09 09:21:13;;;;;;;92.33;37.07;;;0.20;99.90;;;;;;4990347;28;37107;-77
2022/12/09 09:23:41;;;;;;;97.57;40.60;;;0.40;99.90;;;;;;4984328;28;37915;-77
2022/12/09 09:26:16;;;;;;;95.67;38.40;;;0.50;99.90;;;;;;4993485;28;37473;-78
2022/12/09 09:28:43;;;;;;;99.60;37.77;;;0.70;99.90;;;;;;5003181;28;39256;-77
2022/12/09 09:31:12;;;;;;;121.43;40.70;;;0.70;99.90;;;;;;4977762;28;39355;-77
2022/12/09 09:33:39;;;;;;;106.93;40.50;;;0.90;99.90;;;;;;4989352;28;37442;-76
2022/12/09 09:36:07;;;;;;;115.03;43.00;;;1.00;99.90;;;;;;4992256;28;38347;-75
2022/12/09 09:38:34;;;;;;;110.40;44.20;;;1.00;99.90;;;;;;4991249;28;39290;-77
2022/12/09 09:41:05;;;;;;;107.60;44.37;;;1.00;99.90;;;;;;4989833;28;39394;-76
2022/12/09 09:43:35;;;;;;;108.67;45.93;;;1.00;99.90;;;;;;4993639;28;47173;-76
2022/12/09 09:46:03;;;;;;;95.90;42.53;;;1.10;99.90;;;;;;4988680;28;36192;-77
2022/12/09 09:48:34;;;;;;;131.53;48.57;;;1.20;99.90;;;;;;4988421;28;47640;-75
2022/12/09 09:51:10;;;;;;;110.93;45.63;;;1.30;99.90;;;;;;4988398;28;38630;-77
2022/12/09 09:53:36;;;;;;;107.00;44.57;;;1.20;99.90;;;;;;4988673;28;47444;-78
2022/12/09 09:56:33;;;;;;;119.63;47.23;;;1.30;99.90;;;;;;4985832;28;37773;-77
2022/12/09 09:59:15;;;;;;;122.40;49.13;;;1.40;99.90;;;;;;4986173;28;47009;-78
2022/12/09 10:01:45;;;;;;;122.57;46.70;;;1.40;99.90;;;;;;5002509;28;47334;-77
2022/12/09 10:04:40;;;;;;;112.70;44.80;;;1.40;99.90;;;;;;4976490;28;38980;-78
2022/12/09 10:07:16;;;;;;;98.70;43.23;;;1.50;99.90;;;;;;4972581;28;37521;-77
2022/12/09 10:09:42;;;;;;;117.60;47.07;;;1.50;99.90;;;;;;5006005;28;38932;-78
2022/12/09 10:12:40;;;;;;;109.97;46.00;;;1.60;99.90;;;;;;4993002;28;40172;-77
2022/12/09 10:15:13;;;;;;;112.70;44.20;;;1.70;99.90;;;;;;4979354;28;38328;-77
2022/12/09 10:17:52;;;;;;;136.77;49.93;;;1.80;99.90;;;;;;4987607;28;37190;-77
2022/12/09 10:20:23;;;;;;;138.03;48.07;;;1.90;99.90;;;;;;4989764;28;39624;-78
2022/12/09 10:23:04;;;;;;;148.33;50.17;;;1.90;99.90;;;;;;4984157;28;37600;-78
2022/12/09 10:25:37;;;;;;;109.30;46.20;;;2.10;99.90;;;;;;4989473;28;48952;-78
2022/12/09 10:28:24;;;;;;;115.40;47.13;;;2.20;99.90;;;;;;5009415;28;36272;-77
2022/12/09 10:30:53;;;;;;;111.00;46.60;;;2.30;99.90;;;;;;4989382;28;38931;-77
2022/12/09 10:33:28;;;;;;;103.80;46.40;;;2.20;99.90;;;;;;4991505;28;37961;-78
2022/12/09 10:35:55;;;;;;;134.17;52.77;;;2.10;99.90;;;;;;4989656;28;37196;-78
2022/12/09 10:38:21;;;;;;;129.03;49.73;;;2.20;99.90;;;;;;4984879;28;35339;-79
2022/12/09 10:41:04;;;;;;;114.97;47.63;;;2.50;99.90;;;;;;4981960;28;38926;-77
2022/12/09 10:43:37;;;;;;;113.07;48.37;;;2.60;99.90;;;;;;4990687;28;39049;-77
2022/12/09 10:46:16;;;;;;;178.65;53.17;;;2.70;99.90;;;;;;4992711;28;38313;-77
2022/12/09 10:48:52;;;;;;;116.70;46.90;;;2.70;99.90;;;;;;5012121;28;47456;-78
2022/12/09 10:51:26;;;;;;;126.50;50.57;;;2.80;99.90;;;;;;4993136;28;39527;-77
2022/12/09 10:53:56;;;;;;;99.30;47.20;;;3.00;99.90;;;;;;4991083;28;38564;-77
2022/12/09 10:56:24;;;;;;;94.43;43.67;;;2.80;99.90;;;;;;4988533;28;36964;-77
2022/12/09 10:59:24;;;;;;;90.47;43.33;;;2.70;99.90;;;;;;4991820;28;36794;-79
2022/12/09 11:02:22;;;;;;;84.80;41.07;;;2.50;99.90;;;;;;4994639;28;48711;-78
2022/12/09 11:04:49;;;;;;;80.70;38.07;;;2.60;99.90;;;;;;4978081;28;46566;-79
2022/12/09 11:07:21;;;;;;;80.43;40.50;;;2.70;99.90;;;;;;4988905;28;38551;-78
2022/12/09 11:09:52;;;;;;;71.93;38.67;;;2.70;99.90;;;;;;4992298;28;37504;-79
2022/12/09 11:12:27;;;;;;;76.33;38.43;;;2.70;99.90;;;;;;4996788;28;38036;-76
2022/12/09 11:14:57;;;;;;;74.47;37.27;;;2.60;99.90;;;;;;5005730;28;38262;-78
2022/12/09 11:17:30;;;;;;;73.73;39.73;;;2.70;99.90;;;;;;4988619;28;37036;-79
2022/12/09 11:20:10;;;;;;;93.87;41.63;;;2.80;99.90;;;;;;5004609;28;37975;-78
2022/12/09 11:22:39;;;;;;;78.73;39.63;;;2.80;99.90;;;;;;4988590;28;48888;-76
2022/12/09 11:25:34;;;;;;;77.50;39.10;;;2.80;99.90;;;;;;4986993;28;38448;-77
2022/12/09 11:28:15;;;;;;;71.20;38.07;;;2.80;99.90;;;;;;4996060;28;37831;-77
2022/12/09 11:31:13;;;;;;;75.03;38.93;;;2.80;99.90;;;;;;4988822;28;47514;-77
2022/12/09 11:34:02;;;;;;;70.93;36.40;;;2.60;99.90;;;;;;5001085;28;47391;-74
2022/12/09 11:36:40;;;;;;;87.37;39.53;;;2.70;99.90;;;;;;4998783;28;48590;-75
2022/12/09 11:39:20;;;;;;;79.57;38.00;;;2.90;99.90;;;;;;5008797;28;36606;-78
2022/12/09 11:42:16;;;;;;;82.37;39.00;;;3.00;99.90;;;;;;5000728;28;37601;-78
2022/12/09 11:44:59;;;;;;;73.43;35.97;;;3.00;99.90;;;;;;4992783;28;47728;-80
2022/12/09 11:47:31;;;;;;;73.93;36.70;;;2.90;99.90;;;;;;4995433;28;38113;-78
2022/12/09 11:50:06;;;;;;;75.83;36.90;;;3.00;99.90;;;;;;4990963;28;38320;-77
2022/12/09 11:52:32;;;;;;;81.50;36.53;;;3.00;99.90;;;;;;5010838;28;47493;-77
2022/12/09 11:55:26;;;;;;;71.80;35.63;;;3.20;99.90;;;;;;4990523;28;37677;-76
2022/12/09 11:57:59;;;;;;;65.90;33.57;;;3.30;99.90;;;;;;4982575;28;47667;-77
2022/12/09 12:00:29;;;;;;;63.93;34.37;;;3.50;99.90;;;;;;4990955;28;38039;-77
2022/12/09 12:03:21;;;;;;;76.43;38.13;;;3.50;99.90;;;;;;4960536;28;1258135;-75
2022/12/09 12:05:50;;;;;;;67.57;34.67;;;3.70;99.90;;;;;;4988518;28;48812;-77
2022/12/09 12:08:36;;;;;;;60.90;34.40;;;3.90;99.90;;;;;;5003286;28;37936;-77
2022/12/09 12:11:06;;;;;;;68.80;35.63;;;4.00;99.90;;;;;;4988958;28;37428;-77
2022/12/09 12:13:44;;;;;;;60.20;33.03;;;4.00;99.90;;;;;;4987385;28;47133;-78
2022/12/09 12:16:20;;;;;;;61.43;34.60;;;3.80;99.90;;;;;;4988445;28;39007;-76
2022/12/09 12:18:49;;;;;;;59.13;32.33;;;3.60;99.90;;;;;;4981139;28;39238;-77
2022/12/09 12:21:33;;;;;;;53.17;31.40;;;3.70;99.90;;;;;;4983531;28;37440;-77
2022/12/09 12:24:08;;;;;;;53.90;30.73;;;3.60;99.90;;;;;;4986261;28;36216;-78
2022/12/09 12:27:02;;;;;;;51.27;29.87;;;3.80;99.90;;;;;;4982086;28;46434;-77
2022/12/09 12:29:34;;;;;;;50.40;29.80;;;3.80;99.90;;;;;;4984288;28;48372;-78
2022/12/09 12:32:37;;;;;;;56.83;30.95;;;3.80;99.90;;;;;;4988641;28;36898;-77
2022/12/09 12:35:16;;;;;;;50.40;28.05;;;4.00;99.90;;;;;;4995810;28;47005;-77
2022/12/09 12:38:06;;;;;;;52.50;30.13;;;3.90;99.90;;;;;;5003382;28;37364;-77
2022/12/09 12:40:50;;;;;;;57.47;30.77;;;3.90;99.90;;;;;;4989198;28;48726;-78
2022/12/09 12:46:48;;;;;;;51.23;28.40;;;3.70;99.90;;;;;;4991283;28;38194;-77
2022/12/09 12:49:45;;;;;;;53.90;29.90;;;3.60;99.90;;;;;;4991847;28;37600;-78
2022/12/09 12:53:06;;;;;;;59.00;31.60;;;3.50;99.90;;;;;;4992779;28;38457;-77
2022/12/09 12:55:56;;;;;;;63.13;30.97;;;3.50;99.90;;;;;;4967713;28;48943;-79
2022/12/09 12:58:34;;;;;;;59.07;32.37;;;3.70;99.90;;;;;;4983675;28;36220;-77